sensor_id;sensor_type;location;lat;lon;timestamp;P1;durP1;ratioP1;P2;durP2;ratioP2
1350;SDS011;669;50.206;9.998;2023-08-30T00:02:05;1.33;;;1.33;;
1350;SDS011;669;50.206;9.998;2023-08-30T00:04:34;1.20;;;1.20;;
1350;SDS011;669;50.206;9.998;2023-08-30T00:07:02;1.20;;;1.20;;
1350;SDS011;669;50.206;9.998;2023-08-30T00:09:32;1.27;;;1.27;;
1350;SDS011;669;50.206;9.998;2023-08-30T00:12:02;1.30;;;1.30;;
1350;SDS011;669;50.206;9.998;2023-08-30T00:14:30;1.80;;;1.70;;
1350;SDS011;669;50.206;9.998;2023-08-30T00:16:59;1.23;;;1.23;;
1350;SDS011;669;50.206;9.998;2023-08-30T00:19:27;0.97;;;0.97;;
1350;SDS011;669;50.206;9.998;2023-08-30T00:21:54;1.53;;;1.53;;
1350;SDS011;669;50.206;9.998;2023-08-30T00:24:23;1.40;;;1.40;;
1350;SDS011;669;50.206;9.998;2023-08-30T00:26:52;1.70;;;1.60;;
1350;SDS011;669;50.206;9.998;2023-08-30T00:29:20;1.63;;;1.53;;
1350;SDS011;669;50.206;9.998;2023-08-30T00:31:48;1.60;;;1.53;;
1350;SDS011;669;50.206;9.998;2023-08-30T00:34:16;1.57;;;1.47;;
1350;SDS011;669;50.206;9.998;2023-08-30T00:36:44;1.30;;;1.30;;
1350;SDS011;669;50.206;9.998;2023-08-30T00:39:12;1.70;;;1.60;;
1350;SDS011;669;50.206;9.998;2023-08-30T00:41:40;1.73;;;1.63;;
1350;SDS011;669;50.206;9.998;2023-08-30T00:44:10;1.40;;;1.30;;
1350;SDS011;669;50.206;9.998;2023-08-30T00:46:38;1.27;;;1.27;;
1350;SDS011;669;50.206;9.998;2023-08-30T00:49:06;2.10;;;1.40;;
1350;SDS011;669;50.206;9.998;2023-08-30T00:51:33;1.27;;;1.27;;
1350;SDS011;669;50.206;9.998;2023-08-30T00:54:01;1.67;;;1.57;;
1350;SDS011;669;50.206;9.998;2023-08-30T00:56:29;1.17;;;1.17;;
1350;SDS011;669;50.206;9.998;2023-08-30T00:58:58;3.93;;;2.60;;
1350;SDS011;669;50.206;9.998;2023-08-30T01:01:28;1.43;;;1.37;;
1350;SDS011;669;50.206;9.998;2023-08-30T01:03:56;1.23;;;1.23;;
1350;SDS011;669;50.206;9.998;2023-08-30T01:06:24;1.50;;;1.40;;
1350;SDS011;669;50.206;9.998;2023-08-30T01:08:52;1.60;;;1.50;;
1350;SDS011;669;50.206;9.998;2023-08-30T01:11:22;2.40;;;1.40;;
1350;SDS011;669;50.206;9.998;2023-08-30T01:13:58;1.60;;;1.50;;
1350;SDS011;669;50.206;9.998;2023-08-30T01:16:33;1.50;;;1.40;;
1350;SDS011;669;50.206;9.998;2023-08-30T01:19:04;1.53;;;1.43;;
1350;SDS011;669;50.206;9.998;2023-08-30T01:21:47;1.63;;;1.53;;
1350;SDS011;669;50.206;9.998;2023-08-30T01:24:25;1.30;;;1.30;;
1350;SDS011;669;50.206;9.998;2023-08-30T01:27:05;1.63;;;1.53;;
1350;SDS011;669;50.206;9.998;2023-08-30T01:29:38;1.40;;;1.30;;
1350;SDS011;669;50.206;9.998;2023-08-30T01:32:08;1.63;;;1.53;;
1350;SDS011;669;50.206;9.998;2023-08-30T01:34:37;1.17;;;1.13;;
1350;SDS011;669;50.206;9.998;2023-08-30T01:37:06;1.10;;;1.10;;
1350;SDS011;669;50.206;9.998;2023-08-30T01:39:35;1.17;;;1.13;;
1350;SDS011;669;50.206;9.998;2023-08-30T01:42:06;1.30;;;1.27;;
1350;SDS011;669;50.206;9.998;2023-08-30T01:44:34;1.30;;;1.30;;
1350;SDS011;669;50.206;9.998;2023-08-30T01:47:02;1.20;;;1.10;;
1350;SDS011;669;50.206;9.998;2023-08-30T01:49:31;1.10;;;1.10;;
1350;SDS011;669;50.206;9.998;2023-08-30T01:52:00;1.60;;;1.50;;
1350;SDS011;669;50.206;9.998;2023-08-30T01:54:28;1.07;;;1.07;;
1350;SDS011;669;50.206;9.998;2023-08-30T01:56:58;0.90;;;0.90;;
1350;SDS011;669;50.206;9.998;2023-08-30T01:59:27;1.10;;;1.07;;
1350;SDS011;669;50.206;9.998;2023-08-30T02:01:56;1.30;;;1.30;;
1350;SDS011;669;50.206;9.998;2023-08-30T02:04:24;1.03;;;1.03;;
1350;SDS011;669;50.206;9.998;2023-08-30T02:06:54;1.13;;;1.13;;
1350;SDS011;669;50.206;9.998;2023-08-30T02:09:28;1.37;;;1.27;;
1350;SDS011;669;50.206;9.998;2023-08-30T02:12:04;1.60;;;1.50;;
1350;SDS011;669;50.206;9.998;2023-08-30T02:14:37;3.53;;;1.70;;
1350;SDS011;669;50.206;9.998;2023-08-30T02:17:06;1.50;;;1.50;;
1350;SDS011;669;50.206;9.998;2023-08-30T02:19:35;2.07;;;1.97;;
1350;SDS011;669;50.206;9.998;2023-08-30T02:22:03;1.57;;;1.57;;
1350;SDS011;669;50.206;9.998;2023-08-30T02:24:31;4.60;;;2.60;;
1350;SDS011;669;50.206;9.998;2023-08-30T02:26:59;1.67;;;1.57;;
1350;SDS011;669;50.206;9.998;2023-08-30T02:29:27;1.80;;;1.70;;
1350;SDS011;669;50.206;9.998;2023-08-30T02:31:56;1.57;;;1.50;;
1350;SDS011;669;50.206;9.998;2023-08-30T02:34:24;1.90;;;1.40;;
1350;SDS011;669;50.206;9.998;2023-08-30T02:36:52;1.17;;;1.17;;
1350;SDS011;669;50.206;9.998;2023-08-30T02:39:20;1.13;;;1.03;;
1350;SDS011;669;50.206;9.998;2023-08-30T02:41:48;2.43;;;1.10;;
1350;SDS011;669;50.206;9.998;2023-08-30T02:44:16;2.10;;;1.50;;
1350;SDS011;669;50.206;9.998;2023-08-30T02:46:44;1.80;;;1.70;;
1350;SDS011;669;50.206;9.998;2023-08-30T02:49:13;8.60;;;1.90;;
1350;SDS011;669;50.206;9.998;2023-08-30T02:51:41;2.03;;;1.60;;
1350;SDS011;669;50.206;9.998;2023-08-30T02:54:09;2.00;;;1.90;;
1350;SDS011;669;50.206;9.998;2023-08-30T02:56:39;1.40;;;1.37;;
1350;SDS011;669;50.206;9.998;2023-08-30T02:59:07;1.20;;;1.20;;
1350;SDS011;669;50.206;9.998;2023-08-30T03:01:35;2.00;;;1.50;;
1350;SDS011;669;50.206;9.998;2023-08-30T03:04:04;1.57;;;1.50;;
1350;SDS011;669;50.206;9.998;2023-08-30T03:06:34;1.70;;;1.70;;
1350;SDS011;669;50.206;9.998;2023-08-30T03:09:02;1.87;;;1.77;;
1350;SDS011;669;50.206;9.998;2023-08-30T03:11:32;1.40;;;1.40;;
1350;SDS011;669;50.206;9.998;2023-08-30T03:14:00;1.37;;;1.37;;
1350;SDS011;669;50.206;9.998;2023-08-30T03:16:28;1.60;;;1.50;;
1350;SDS011;669;50.206;9.998;2023-08-30T03:18:56;1.40;;;1.40;;
1350;SDS011;669;50.206;9.998;2023-08-30T03:21:25;1.50;;;1.40;;
1350;SDS011;669;50.206;9.998;2023-08-30T03:23:54;1.40;;;1.40;;
1350;SDS011;669;50.206;9.998;2023-08-30T03:26:22;1.53;;;1.43;;
1350;SDS011;669;50.206;9.998;2023-08-30T03:28:50;1.37;;;1.37;;
1350;SDS011;669;50.206;9.998;2023-08-30T03:31:18;1.70;;;1.60;;
1350;SDS011;669;50.206;9.998;2023-08-30T03:33:48;2.40;;;1.80;;
1350;SDS011;669;50.206;9.998;2023-08-30T03:36:17;1.70;;;1.60;;
1350;SDS011;669;50.206;9.998;2023-08-30T03:38:45;1.60;;;1.60;;
1350;SDS011;669;50.206;9.998;2023-08-30T03:41:15;2.03;;;1.93;;
1350;SDS011;669;50.206;9.998;2023-08-30T03:43:42;1.70;;;1.60;;
1350;SDS011;669;50.206;9.998;2023-08-30T03:46:10;1.63;;;1.43;;
1350;SDS011;669;50.206;9.998;2023-08-30T03:48:39;1.40;;;1.30;;
1350;SDS011;669;50.206;9.998;2023-08-30T03:51:06;1.40;;;1.30;;
1350;SDS011;669;50.206;9.998;2023-08-30T03:53:34;1.50;;;1.50;;
1350;SDS011;669;50.206;9.998;2023-08-30T03:56:03;1.70;;;1.60;;
1350;SDS011;669;50.206;9.998;2023-08-30T03:58:32;1.90;;;1.80;;
1350;SDS011;669;50.206;9.998;2023-08-30T04:01:00;2.93;;;1.60;;
1350;SDS011;669;50.206;9.998;2023-08-30T04:03:28;1.80;;;1.70;;
1350;SDS011;669;50.206;9.998;2023-08-30T04:05:56;1.73;;;1.63;;
1350;SDS011;669;50.206;9.998;2023-08-30T04:08:24;1.90;;;1.80;;
1350;SDS011;669;50.206;9.998;2023-08-30T04:10:53;1.10;;;1.10;;
1350;SDS011;669;50.206;9.998;2023-08-30T04:13:21;2.03;;;1.93;;
1350;SDS011;669;50.206;9.998;2023-08-30T04:15:50;1.70;;;1.63;;
1350;SDS011;669;50.206;9.998;2023-08-30T04:18:18;1.60;;;1.50;;
1350;SDS011;669;50.206;9.998;2023-08-30T04:20:46;1.77;;;1.67;;
1350;SDS011;669;50.206;9.998;2023-08-30T04:23:15;1.50;;;1.40;;
1350;SDS011;669;50.206;9.998;2023-08-30T04:25:44;1.53;;;1.50;;
1350;SDS011;669;50.206;9.998;2023-08-30T04:28:12;2.00;;;1.90;;
1350;SDS011;669;50.206;9.998;2023-08-30T04:30:40;1.90;;;1.80;;
1350;SDS011;669;50.206;9.998;2023-08-30T04:33:09;1.90;;;1.70;;
1350;SDS011;669;50.206;9.998;2023-08-30T04:35:37;1.20;;;1.20;;
1350;SDS011;669;50.206;9.998;2023-08-30T04:38:05;1.50;;;1.40;;
1350;SDS011;669;50.206;9.998;2023-08-30T04:40:34;1.33;;;1.23;;
1350;SDS011;669;50.206;9.998;2023-08-30T04:43:02;1.30;;;1.30;;
1350;SDS011;669;50.206;9.998;2023-08-30T04:45:30;1.73;;;1.63;;
1350;SDS011;669;50.206;9.998;2023-08-30T04:47:58;1.60;;;1.50;;
1350;SDS011;669;50.206;9.998;2023-08-30T04:50:28;1.40;;;1.33;;
1350;SDS011;669;50.206;9.998;2023-08-30T04:52:56;1.90;;;1.80;;
1350;SDS011;669;50.206;9.998;2023-08-30T04:55:24;1.97;;;1.87;;
1350;SDS011;669;50.206;9.998;2023-08-30T04:57:52;2.23;;;1.50;;
1350;SDS011;669;50.206;9.998;2023-08-30T05:00:20;2.60;;;2.50;;
1350;SDS011;669;50.206;9.998;2023-08-30T05:02:48;8.73;;;2.70;;
1350;SDS011;669;50.206;9.998;2023-08-30T05:05:17;2.63;;;2.43;;
1350;SDS011;669;50.206;9.998;2023-08-30T05:07:46;3.43;;;3.13;;
1350;SDS011;669;50.206;9.998;2023-08-30T05:10:14;4.60;;;2.87;;
1350;SDS011;669;50.206;9.998;2023-08-30T05:12:42;3.20;;;3.00;;
1350;SDS011;669;50.206;9.998;2023-08-30T05:15:14;2.47;;;2.30;;
1350;SDS011;669;50.206;9.998;2023-08-30T05:17:42;3.57;;;3.10;;
1350;SDS011;669;50.206;9.998;2023-08-30T05:20:10;2.43;;;2.33;;
1350;SDS011;669;50.206;9.998;2023-08-30T05:22:38;4.00;;;3.70;;
1350;SDS011;669;50.206;9.998;2023-08-30T05:25:07;3.23;;;2.93;;
1350;SDS011;669;50.206;9.998;2023-08-30T05:27:36;3.80;;;3.30;;
1350;SDS011;669;50.206;9.998;2023-08-30T05:30:04;5.50;;;3.37;;
1350;SDS011;669;50.206;9.998;2023-08-30T05:32:33;5.00;;;3.40;;
1350;SDS011;669;50.206;9.998;2023-08-30T05:35:01;2.63;;;2.47;;
1350;SDS011;669;50.206;9.998;2023-08-30T05:37:29;3.00;;;2.80;;
1350;SDS011;669;50.206;9.998;2023-08-30T05:39:57;3.90;;;3.60;;
1350;SDS011;669;50.206;9.998;2023-08-30T05:42:26;2.87;;;2.67;;
1350;SDS011;669;50.206;9.998;2023-08-30T05:44:54;4.03;;;3.73;;
1350;SDS011;669;50.206;9.998;2023-08-30T05:47:22;4.50;;;4.10;;
1350;SDS011;669;50.206;9.998;2023-08-30T05:49:50;3.03;;;2.83;;
1350;SDS011;669;50.206;9.998;2023-08-30T05:52:18;4.50;;;4.10;;
1350;SDS011;669;50.206;9.998;2023-08-30T05:54:46;3.37;;;3.10;;
1350;SDS011;669;50.206;9.998;2023-08-30T05:57:14;3.93;;;3.63;;
1350;SDS011;669;50.206;9.998;2023-08-30T05:59:43;3.87;;;3.57;;
1350;SDS011;669;50.206;9.998;2023-08-30T06:02:11;3.37;;;3.07;;
1350;SDS011;669;50.206;9.998;2023-08-30T06:04:39;3.90;;;3.57;;
1350;SDS011;669;50.206;9.998;2023-08-30T06:07:07;2.83;;;2.63;;
1350;SDS011;669;50.206;9.998;2023-08-30T06:09:35;2.80;;;2.60;;
1350;SDS011;669;50.206;9.998;2023-08-30T06:12:03;3.90;;;3.60;;
1350;SDS011;669;50.206;9.998;2023-08-30T06:14:31;2.90;;;2.70;;
1350;SDS011;669;50.206;9.998;2023-08-30T06:17:01;3.20;;;3.00;;
1350;SDS011;669;50.206;9.998;2023-08-30T06:19:29;6.00;;;3.37;;
1350;SDS011;669;50.206;9.998;2023-08-30T06:21:56;3.50;;;3.23;;
1350;SDS011;669;50.206;9.998;2023-08-30T06:24:24;3.20;;;3.00;;
1350;SDS011;669;50.206;9.998;2023-08-30T06:26:52;3.60;;;3.37;;
1350;SDS011;669;50.206;9.998;2023-08-30T06:29:20;3.20;;;2.97;;
1350;SDS011;669;50.206;9.998;2023-08-30T06:31:48;2.50;;;2.40;;
1350;SDS011;669;50.206;9.998;2023-08-30T06:34:18;3.00;;;2.83;;
1350;SDS011;669;50.206;9.998;2023-08-30T06:36:45;3.30;;;3.10;;
1350;SDS011;669;50.206;9.998;2023-08-30T06:39:14;2.70;;;2.50;;
1350;SDS011;669;50.206;9.998;2023-08-30T06:41:42;3.97;;;3.67;;
1350;SDS011;669;50.206;9.998;2023-08-30T06:44:10;5.30;;;4.80;;
1350;SDS011;669;50.206;9.998;2023-08-30T06:46:38;4.93;;;4.47;;
1350;SDS011;669;50.206;9.998;2023-08-30T06:49:06;4.17;;;3.77;;
1350;SDS011;669;50.206;9.998;2023-08-30T06:51:37;5.63;;;5.10;;
1350;SDS011;669;50.206;9.998;2023-08-30T06:54:05;3.37;;;3.03;;
1350;SDS011;669;50.206;9.998;2023-08-30T06:56:33;6.10;;;5.60;;
1350;SDS011;669;50.206;9.998;2023-08-30T06:59:01;4.07;;;3.77;;
1350;SDS011;669;50.206;9.998;2023-08-30T07:01:29;4.60;;;4.17;;
1350;SDS011;669;50.206;9.998;2023-08-30T07:04:01;4.47;;;3.70;;
1350;SDS011;669;50.206;9.998;2023-08-30T07:06:29;4.50;;;4.20;;
1350;SDS011;669;50.206;9.998;2023-08-30T07:08:58;4.03;;;3.73;;
1350;SDS011;669;50.206;9.998;2023-08-30T07:11:26;3.57;;;3.30;;
1350;SDS011;669;50.206;9.998;2023-08-30T07:14:00;5.00;;;4.60;;
1350;SDS011;669;50.206;9.998;2023-08-30T07:16:28;5.03;;;4.63;;
1350;SDS011;669;50.206;9.998;2023-08-30T07:18:58;5.20;;;4.80;;
1350;SDS011;669;50.206;9.998;2023-08-30T07:21:27;4.47;;;4.07;;
1350;SDS011;669;50.206;9.998;2023-08-30T07:23:55;4.67;;;4.27;;
1350;SDS011;669;50.206;9.998;2023-08-30T07:26:25;6.50;;;5.90;;
1350;SDS011;669;50.206;9.998;2023-08-30T07:28:53;5.70;;;5.20;;
1350;SDS011;669;50.206;9.998;2023-08-30T07:31:21;6.30;;;5.70;;
1350;SDS011;669;50.206;9.998;2023-08-30T07:33:49;6.47;;;5.87;;
1350;SDS011;669;50.206;9.998;2023-08-30T07:36:17;5.70;;;5.20;;
1350;SDS011;669;50.206;9.998;2023-08-30T07:38:51;4.50;;;4.20;;
1350;SDS011;669;50.206;9.998;2023-08-30T07:41:19;6.20;;;4.93;;
1350;SDS011;669;50.206;9.998;2023-08-30T07:43:48;3.90;;;3.60;;
1350;SDS011;669;50.206;9.998;2023-08-30T07:46:16;3.90;;;3.60;;
1350;SDS011;669;50.206;9.998;2023-08-30T07:48:44;6.00;;;5.43;;
1350;SDS011;669;50.206;9.998;2023-08-30T07:51:12;7.20;;;6.50;;
1350;SDS011;669;50.206;9.998;2023-08-30T07:53:40;4.63;;;4.03;;
1350;SDS011;669;50.206;9.998;2023-08-30T07:56:08;3.70;;;3.40;;
1350;SDS011;669;50.206;9.998;2023-08-30T07:58:36;4.70;;;3.90;;
1350;SDS011;669;50.206;9.998;2023-08-30T08:01:05;4.07;;;3.77;;
1350;SDS011;669;50.206;9.998;2023-08-30T08:03:33;3.90;;;3.60;;
1350;SDS011;669;50.206;9.998;2023-08-30T08:06:01;4.83;;;4.43;;
1350;SDS011;669;50.206;9.998;2023-08-30T08:08:30;5.70;;;4.30;;
1350;SDS011;669;50.206;9.998;2023-08-30T08:10:58;3.20;;;3.00;;
1350;SDS011;669;50.206;9.998;2023-08-30T08:13:26;5.23;;;4.23;;
1350;SDS011;669;50.206;9.998;2023-08-30T08:15:55;4.23;;;3.83;;
1350;SDS011;669;50.206;9.998;2023-08-30T08:18:25;3.43;;;3.20;;
1350;SDS011;669;50.206;9.998;2023-08-30T08:20:53;2.67;;;2.47;;
1350;SDS011;669;50.206;9.998;2023-08-30T08:23:21;4.10;;;3.70;;
1350;SDS011;669;50.206;9.998;2023-08-30T08:25:49;4.10;;;3.77;;
1350;SDS011;669;50.206;9.998;2023-08-30T08:28:24;3.47;;;3.17;;
1350;SDS011;669;50.206;9.998;2023-08-30T08:30:52;5.67;;;4.13;;
1350;SDS011;669;50.206;9.998;2023-08-30T08:33:20;7.50;;;4.87;;
1350;SDS011;669;50.206;9.998;2023-08-30T08:35:51;6.00;;;4.03;;
1350;SDS011;669;50.206;9.998;2023-08-30T08:38:20;7.10;;;4.40;;
1350;SDS011;669;50.206;9.998;2023-08-30T08:40:48;9.03;;;5.90;;
1350;SDS011;669;50.206;9.998;2023-08-30T08:43:19;7.60;;;6.13;;
1350;SDS011;669;50.206;9.998;2023-08-30T08:45:47;5.77;;;4.47;;
1350;SDS011;669;50.206;9.998;2023-08-30T08:48:17;6.50;;;4.80;;
1350;SDS011;669;50.206;9.998;2023-08-30T08:50:45;4.30;;;3.90;;
1350;SDS011;669;50.206;9.998;2023-08-30T08:53:14;5.80;;;4.10;;
1350;SDS011;669;50.206;9.998;2023-08-30T08:55:42;5.77;;;3.97;;
1350;SDS011;669;50.206;9.998;2023-08-30T08:58:13;5.27;;;4.60;;
1350;SDS011;669;50.206;9.998;2023-08-30T09:00:42;3.70;;;3.50;;
1350;SDS011;669;50.206;9.998;2023-08-30T09:03:10;6.10;;;4.43;;
1350;SDS011;669;50.206;9.998;2023-08-30T09:05:41;4.67;;;4.27;;
1350;SDS011;669;50.206;9.998;2023-08-30T09:08:09;4.73;;;3.80;;
1350;SDS011;669;50.206;9.998;2023-08-30T09:10:40;4.53;;;4.00;;
1350;SDS011;669;50.206;9.998;2023-08-30T09:13:08;3.80;;;3.50;;
1350;SDS011;669;50.206;9.998;2023-08-30T09:15:37;4.97;;;3.90;;
1350;SDS011;669;50.206;9.998;2023-08-30T09:18:13;4.37;;;3.57;;
1350;SDS011;669;50.206;9.998;2023-08-30T09:20:42;3.70;;;3.40;;
1350;SDS011;669;50.206;9.998;2023-08-30T09:23:16;3.30;;;3.00;;
1350;SDS011;669;50.206;9.998;2023-08-30T09:25:46;6.57;;;4.27;;
1350;SDS011;669;50.206;9.998;2023-08-30T09:28:14;3.60;;;3.30;;
1350;SDS011;669;50.206;9.998;2023-08-30T09:30:42;3.00;;;2.80;;
1350;SDS011;669;50.206;9.998;2023-08-30T09:33:19;5.90;;;4.70;;
1350;SDS011;669;50.206;9.998;2023-08-30T09:35:48;4.23;;;3.93;;
1350;SDS011;669;50.206;9.998;2023-08-30T09:38:16;3.77;;;3.43;;
1350;SDS011;669;50.206;9.998;2023-08-30T09:40:46;5.23;;;4.73;;
1350;SDS011;669;50.206;9.998;2023-08-30T09:43:17;6.73;;;4.50;;
1350;SDS011;669;50.206;9.998;2023-08-30T09:45:48;5.70;;;3.60;;
1350;SDS011;669;50.206;9.998;2023-08-30T09:48:16;8.00;;;3.87;;
1350;SDS011;669;50.206;9.998;2023-08-30T09:50:49;6.00;;;5.43;;
1350;SDS011;669;50.206;9.998;2023-08-30T09:53:21;5.13;;;4.27;;
1350;SDS011;669;50.206;9.998;2023-08-30T09:55:54;5.93;;;5.30;;
1350;SDS011;669;50.206;9.998;2023-08-30T09:58:22;6.17;;;3.77;;
1350;SDS011;669;50.206;9.998;2023-08-30T10:00:53;4.70;;;4.20;;
1350;SDS011;669;50.206;9.998;2023-08-30T10:03:22;3.83;;;3.53;;
1350;SDS011;669;50.206;9.998;2023-08-30T10:05:57;3.90;;;3.50;;
1350;SDS011;669;50.206;9.998;2023-08-30T10:08:27;5.80;;;4.80;;
1350;SDS011;669;50.206;9.998;2023-08-30T10:10:59;4.80;;;4.40;;
1350;SDS011;669;50.206;9.998;2023-08-30T10:13:28;4.40;;;4.00;;
1350;SDS011;669;50.206;9.998;2023-08-30T10:15:58;4.60;;;3.40;;
1350;SDS011;669;50.206;9.998;2023-08-30T10:18:32;2.60;;;2.50;;
1350;SDS011;669;50.206;9.998;2023-08-30T10:21:06;5.70;;;4.23;;
1350;SDS011;669;50.206;9.998;2023-08-30T10:23:38;2.80;;;2.60;;
1350;SDS011;669;50.206;9.998;2023-08-30T10:26:08;5.50;;;4.60;;
1350;SDS011;669;50.206;9.998;2023-08-30T10:28:37;6.47;;;4.77;;
1350;SDS011;669;50.206;9.998;2023-08-30T10:31:07;4.70;;;4.00;;
1350;SDS011;669;50.206;9.998;2023-08-30T10:33:43;4.37;;;4.00;;
1350;SDS011;669;50.206;9.998;2023-08-30T10:36:20;4.73;;;4.33;;
1350;SDS011;669;50.206;9.998;2023-08-30T10:38:48;6.60;;;3.70;;
1350;SDS011;669;50.206;9.998;2023-08-30T10:41:21;3.70;;;3.40;;
1350;SDS011;669;50.206;9.998;2023-08-30T10:43:51;5.70;;;3.83;;
1350;SDS011;669;50.206;9.998;2023-08-30T10:46:31;3.20;;;3.00;;
1350;SDS011;669;50.206;9.998;2023-08-30T10:49:09;5.40;;;3.53;;
1350;SDS011;669;50.206;9.998;2023-08-30T10:51:40;3.63;;;3.33;;
1350;SDS011;669;50.206;9.998;2023-08-30T10:54:10;5.47;;;4.10;;
1350;SDS011;669;50.206;9.998;2023-08-30T10:56:46;4.33;;;3.40;;
1350;SDS011;669;50.206;9.998;2023-08-30T10:59:15;8.20;;;5.50;;
1350;SDS011;669;50.206;9.998;2023-08-30T11:01:45;3.77;;;3.47;;
1350;SDS011;669;50.206;9.998;2023-08-30T11:04:14;4.33;;;3.93;;
1350;SDS011;669;50.206;9.998;2023-08-30T11:06:44;4.20;;;3.73;;
1350;SDS011;669;50.206;9.998;2023-08-30T11:09:14;5.27;;;4.77;;
1350;SDS011;669;50.206;9.998;2023-08-30T11:11:44;5.17;;;4.17;;
1350;SDS011;669;50.206;9.998;2023-08-30T11:14:14;4.90;;;4.50;;
1350;SDS011;669;50.206;9.998;2023-08-30T11:16:43;4.40;;;4.10;;
1350;SDS011;669;50.206;9.998;2023-08-30T11:19:11;6.30;;;5.70;;
1350;SDS011;669;50.206;9.998;2023-08-30T11:21:40;5.57;;;4.00;;
1350;SDS011;669;50.206;9.998;2023-08-30T11:24:10;4.60;;;4.20;;
1350;SDS011;669;50.206;9.998;2023-08-30T11:26:39;4.53;;;3.97;;
1350;SDS011;669;50.206;9.998;2023-08-30T11:29:07;3.63;;;3.33;;
1350;SDS011;669;50.206;9.998;2023-08-30T11:31:37;5.17;;;4.73;;
1350;SDS011;669;50.206;9.998;2023-08-30T11:34:06;4.60;;;4.07;;
1350;SDS011;669;50.206;9.998;2023-08-30T11:36:34;4.27;;;3.67;;
1350;SDS011;669;50.206;9.998;2023-08-30T11:39:03;5.20;;;3.77;;
1350;SDS011;669;50.206;9.998;2023-08-30T11:41:32;4.20;;;3.80;;
1350;SDS011;669;50.206;9.998;2023-08-30T11:44:00;3.90;;;3.60;;
1350;SDS011;669;50.206;9.998;2023-08-30T11:46:29;3.97;;;3.67;;
1350;SDS011;669;50.206;9.998;2023-08-30T11:48:59;3.73;;;3.50;;
1350;SDS011;669;50.206;9.998;2023-08-30T11:51:29;3.30;;;2.90;;
1350;SDS011;669;50.206;9.998;2023-08-30T11:53:57;3.37;;;3.07;;
1350;SDS011;669;50.206;9.998;2023-08-30T11:56:28;4.43;;;4.03;;
1350;SDS011;669;50.206;9.998;2023-08-30T11:58:57;4.13;;;3.83;;
1350;SDS011;669;50.206;9.998;2023-08-30T12:01:25;4.53;;;3.80;;
1350;SDS011;669;50.206;9.998;2023-08-30T12:03:53;3.03;;;2.83;;
1350;SDS011;669;50.206;9.998;2023-08-30T12:06:23;3.83;;;3.57;;
1350;SDS011;669;50.206;9.998;2023-08-30T12:08:57;4.30;;;3.50;;
1350;SDS011;669;50.206;9.998;2023-08-30T12:11:25;3.70;;;3.40;;
1350;SDS011;669;50.206;9.998;2023-08-30T12:14:01;3.70;;;3.00;;
1350;SDS011;669;50.206;9.998;2023-08-30T12:16:29;4.43;;;4.10;;
1350;SDS011;669;50.206;9.998;2023-08-30T12:19:06;4.30;;;3.90;;
1350;SDS011;669;50.206;9.998;2023-08-30T12:21:40;4.40;;;3.03;;
1350;SDS011;669;50.206;9.998;2023-08-30T12:24:09;2.97;;;2.77;;
1350;SDS011;669;50.206;9.998;2023-08-30T12:26:37;3.73;;;3.43;;
1350;SDS011;669;50.206;9.998;2023-08-30T12:29:05;3.43;;;3.20;;
1350;SDS011;669;50.206;9.998;2023-08-30T12:31:33;3.30;;;3.10;;
1350;SDS011;669;50.206;9.998;2023-08-30T12:34:01;3.43;;;3.20;;
1350;SDS011;669;50.206;9.998;2023-08-30T12:36:29;4.40;;;4.00;;
1350;SDS011;669;50.206;9.998;2023-08-30T12:38:59;3.07;;;2.87;;
1350;SDS011;669;50.206;9.998;2023-08-30T12:41:27;2.80;;;2.70;;
1350;SDS011;669;50.206;9.998;2023-08-30T12:43:55;3.57;;;3.23;;
1350;SDS011;669;50.206;9.998;2023-08-30T12:46:24;3.07;;;2.77;;
1350;SDS011;669;50.206;9.998;2023-08-30T12:48:52;3.50;;;3.20;;
1350;SDS011;669;50.206;9.998;2023-08-30T12:51:24;4.03;;;3.57;;
1350;SDS011;669;50.206;9.998;2023-08-30T12:53:52;4.33;;;3.73;;
1350;SDS011;669;50.206;9.998;2023-08-30T12:56:21;5.43;;;3.63;;
1350;SDS011;669;50.206;9.998;2023-08-30T12:58:49;3.93;;;3.60;;
1350;SDS011;669;50.206;9.998;2023-08-30T13:01:18;3.40;;;3.10;;
1350;SDS011;669;50.206;9.998;2023-08-30T13:03:46;3.77;;;3.40;;
1350;SDS011;669;50.206;9.998;2023-08-30T13:06:14;3.13;;;2.93;;
1350;SDS011;669;50.206;9.998;2023-08-30T13:08:42;4.20;;;3.90;;
1350;SDS011;669;50.206;9.998;2023-08-30T13:11:10;3.47;;;3.27;;
1350;SDS011;669;50.206;9.998;2023-08-30T13:13:40;4.03;;;3.63;;
1350;SDS011;669;50.206;9.998;2023-08-30T13:16:08;3.63;;;3.33;;
1350;SDS011;669;50.206;9.998;2023-08-30T13:18:36;5.03;;;4.63;;
1350;SDS011;669;50.206;9.998;2023-08-30T13:21:04;5.00;;;4.60;;
1350;SDS011;669;50.206;9.998;2023-08-30T13:23:32;3.87;;;3.67;;
1350;SDS011;669;50.206;9.998;2023-08-30T13:26:00;3.47;;;3.27;;
1350;SDS011;669;50.206;9.998;2023-08-30T13:28:28;4.10;;;3.80;;
1350;SDS011;669;50.206;9.998;2023-08-30T13:30:57;3.73;;;3.53;;
1350;SDS011;669;50.206;9.998;2023-08-30T13:33:25;4.03;;;3.77;;
1350;SDS011;669;50.206;9.998;2023-08-30T13:35:54;4.33;;;4.03;;
1350;SDS011;669;50.206;9.998;2023-08-30T13:38:21;4.57;;;4.17;;
1350;SDS011;669;50.206;9.998;2023-08-30T13:40:57;3.70;;;3.50;;
1350;SDS011;669;50.206;9.998;2023-08-30T13:43:25;4.07;;;3.70;;
1350;SDS011;669;50.206;9.998;2023-08-30T13:45:58;3.90;;;3.50;;
1350;SDS011;669;50.206;9.998;2023-08-30T13:48:26;4.20;;;3.90;;
1350;SDS011;669;50.206;9.998;2023-08-30T13:50:54;4.67;;;4.37;;
1350;SDS011;669;50.206;9.998;2023-08-30T13:53:22;4.57;;;4.17;;
1350;SDS011;669;50.206;9.998;2023-08-30T13:55:52;5.17;;;4.77;;
1350;SDS011;669;50.206;9.998;2023-08-30T13:58:20;4.60;;;4.30;;
1350;SDS011;669;50.206;9.998;2023-08-30T14:00:48;4.30;;;4.00;;
1350;SDS011;669;50.206;9.998;2023-08-30T14:03:17;4.50;;;4.10;;
1350;SDS011;669;50.206;9.998;2023-08-30T14:05:45;4.20;;;3.90;;
1350;SDS011;669;50.206;9.998;2023-08-30T14:08:13;4.40;;;4.10;;
1350;SDS011;669;50.206;9.998;2023-08-30T14:10:41;3.90;;;3.50;;
1350;SDS011;669;50.206;9.998;2023-08-30T14:13:09;3.90;;;3.60;;
1350;SDS011;669;50.206;9.998;2023-08-30T14:15:38;4.93;;;3.93;;
1350;SDS011;669;50.206;9.998;2023-08-30T14:18:06;4.20;;;3.90;;
1350;SDS011;669;50.206;9.998;2023-08-30T14:20:36;4.23;;;3.77;;
1350;SDS011;669;50.206;9.998;2023-08-30T14:23:04;3.67;;;3.37;;
1350;SDS011;669;50.206;9.998;2023-08-30T14:25:32;3.90;;;3.67;;
1350;SDS011;669;50.206;9.998;2023-08-30T14:28:00;4.03;;;3.73;;
1350;SDS011;669;50.206;9.998;2023-08-30T14:30:29;3.97;;;3.67;;
1350;SDS011;669;50.206;9.998;2023-08-30T14:32:57;3.63;;;3.43;;
1350;SDS011;669;50.206;9.998;2023-08-30T14:35:25;3.50;;;3.30;;
1350;SDS011;669;50.206;9.998;2023-08-30T14:37:56;3.67;;;3.30;;
1350;SDS011;669;50.206;9.998;2023-08-30T14:40:24;3.30;;;3.10;;
1350;SDS011;669;50.206;9.998;2023-08-30T14:42:52;3.50;;;3.20;;
1350;SDS011;669;50.206;9.998;2023-08-30T14:45:20;3.37;;;3.03;;
1350;SDS011;669;50.206;9.998;2023-08-30T14:47:47;4.10;;;3.80;;
1350;SDS011;669;50.206;9.998;2023-08-30T14:50:16;3.87;;;3.47;;
1350;SDS011;669;50.206;9.998;2023-08-30T14:52:44;4.23;;;3.43;;
1350;SDS011;669;50.206;9.998;2023-08-30T14:55:13;3.73;;;3.43;;
1350;SDS011;669;50.206;9.998;2023-08-30T14:57:41;4.07;;;3.27;;
1350;SDS011;669;50.206;9.998;2023-08-30T15:00:10;3.90;;;3.50;;
1350;SDS011;669;50.206;9.998;2023-08-30T15:02:38;2.73;;;2.53;;
1350;SDS011;669;50.206;9.998;2023-08-30T15:05:06;3.17;;;2.90;;
1350;SDS011;669;50.206;9.998;2023-08-30T15:07:35;2.63;;;2.43;;
1350;SDS011;669;50.206;9.998;2023-08-30T15:10:03;2.97;;;2.27;;
1350;SDS011;669;50.206;9.998;2023-08-30T15:12:33;1.90;;;1.80;;
1350;SDS011;669;50.206;9.998;2023-08-30T15:15:01;2.77;;;2.60;;
1350;SDS011;669;50.206;9.998;2023-08-30T15:17:29;4.60;;;2.43;;
1350;SDS011;669;50.206;9.998;2023-08-30T15:19:57;3.40;;;2.50;;
1350;SDS011;669;50.206;9.998;2023-08-30T15:22:25;2.10;;;2.00;;
1350;SDS011;669;50.206;9.998;2023-08-30T15:24:52;2.00;;;1.80;;
1350;SDS011;669;50.206;9.998;2023-08-30T15:27:20;2.20;;;2.10;;
1350;SDS011;669;50.206;9.998;2023-08-30T15:29:50;2.67;;;2.47;;
1350;SDS011;669;50.206;9.998;2023-08-30T15:32:21;3.10;;;1.83;;
1350;SDS011;669;50.206;9.998;2023-08-30T15:34:49;2.10;;;2.00;;
1350;SDS011;669;50.206;9.998;2023-08-30T15:37:17;2.53;;;2.43;;
1350;SDS011;669;50.206;9.998;2023-08-30T15:39:45;2.20;;;2.00;;
1350;SDS011;669;50.206;9.998;2023-08-30T15:42:14;2.03;;;1.93;;